South Coffeyville, Oklahoma
Current Conditions -  °F | °C
As of 5:52 AM on Friday 28 Nov 2014 (Local Time) from KCFV Reporting Station
Clear Clear  
Wind Chill: 31°   Ceiling: Unl
Heat Index: 39°   Visibility: 10mi
Dew Point: 28°   Wind: 15mph
Humidity: 65%   Direction: 180°S
Pressure: 30.12"   Gusts: NA
Location:  36.99°N, 95.62°W
Report Text: KCFV 281152Z AUTO 18013KT 10SM CLR 04/M02 A3012 RMK AO2 SLP204 T00391022 10039 20006 56026
Loading
Personal Weather Stations






























Interactive Weather Map New forecast layout! Learn more

10-Day Weather Forecast

Advertisements
Track Severe Weather on mobile